sensor_id;sensor_type;location;lat;lon;timestamp;pressure;altitude;pressure_sealevel;temperature;humidity
35910;BME280;22004;49.120;-0.200;2022-07-29T00:00:56;101379.22;;;19.25;67.58
35910;BME280;22004;49.120;-0.200;2022-07-29T00:03:22;101384.00;;;19.32;67.35
35910;BME280;22004;49.120;-0.200;2022-07-29T00:05:47;101382.75;;;19.25;67.33
35910;BME280;22004;49.120;-0.200;2022-07-29T00:08:13;101388.63;;;19.19;67.61
35910;BME280;22004;49.120;-0.200;2022-07-29T00:10:38;101381.75;;;19.15;67.54
35910;BME280;22004;49.120;-0.200;2022-07-29T00:13:04;101383.22;;;19.19;67.45
35910;BME280;22004;49.120;-0.200;2022-07-29T00:15:29;101381.69;;;19.04;67.95
35910;BME280;22004;49.120;-0.200;2022-07-29T00:17:54;101384.47;;;18.91;68.14
35910;BME280;22004;49.120;-0.200;2022-07-29T00:20:20;101381.00;;;19.13;67.86
35910;BME280;22004;49.120;-0.200;2022-07-29T00:22:45;101379.63;;;18.83;68.49
35910;BME280;22004;49.120;-0.200;2022-07-29T00:25:12;101379.75;;;19.06;68.11
35910;BME280;22004;49.120;-0.200;2022-07-29T00:27:37;101383.66;;;19.01;68.17
35910;BME280;22004;49.120;-0.200;2022-07-29T00:30:04;101381.38;;;19.08;67.95
35910;BME280;22004;49.120;-0.200;2022-07-29T00:32:30;101381.41;;;18.95;68.28
35910;BME280;22004;49.120;-0.200;2022-07-29T00:34:55;101387.56;;;18.97;67.67
35910;BME280;22004;49.120;-0.200;2022-07-29T00:37:39;101386.59;;;18.85;68.19
35910;BME280;22004;49.120;-0.200;2022-07-29T00:40:05;101378.28;;;19.01;68.08
35910;BME280;22004;49.120;-0.200;2022-07-29T00:42:41;101373.47;;;18.94;68.34
35910;BME280;22004;49.120;-0.200;2022-07-29T00:45:07;101377.88;;;18.71;68.69
35910;BME280;22004;49.120;-0.200;2022-07-29T00:47:32;101377.19;;;18.80;68.72
35910;BME280;22004;49.120;-0.200;2022-07-29T00:49:58;101375.00;;;18.85;68.29
35910;BME280;22004;49.120;-0.200;2022-07-29T00:52:23;101376.91;;;18.72;68.54
35910;BME280;22004;49.120;-0.200;2022-07-29T00:54:48;101370.19;;;18.77;68.47
35910;BME280;22004;49.120;-0.200;2022-07-29T00:57:14;101378.91;;;18.81;68.06
35910;BME280;22004;49.120;-0.200;2022-07-29T00:59:40;101380.19;;;18.75;68.61
35910;BME280;22004;49.120;-0.200;2022-07-29T01:02:05;101380.19;;;18.75;68.45
35910;BME280;22004;49.120;-0.200;2022-07-29T01:04:31;101384.03;;;18.84;68.53
35910;BME280;22004;49.120;-0.200;2022-07-29T01:06:57;101381.75;;;18.66;68.67
35910;BME280;22004;49.120;-0.200;2022-07-29T01:09:22;101379.94;;;18.91;68.43
35910;BME280;22004;49.120;-0.200;2022-07-29T01:11:48;101368.94;;;18.70;68.78
35910;BME280;22004;49.120;-0.200;2022-07-29T01:14:15;101366.28;;;18.70;68.65
35910;BME280;22004;49.120;-0.200;2022-07-29T01:17:12;101369.28;;;18.65;68.54
35910;BME280;22004;49.120;-0.200;2022-07-29T01:19:58;101355.13;;;18.63;68.83
35910;BME280;22004;49.120;-0.200;2022-07-29T01:30:41;101359.16;;;18.69;68.68
35910;BME280;22004;49.120;-0.200;2022-07-29T01:33:11;101366.44;;;18.80;68.41
35910;BME280;22004;49.120;-0.200;2022-07-29T01:36:01;101364.44;;;18.71;68.36
35910;BME280;22004;49.120;-0.200;2022-07-29T01:38:27;101358.25;;;18.81;68.37
35910;BME280;22004;49.120;-0.200;2022-07-29T01:41:02;101358.22;;;18.70;68.43
35910;BME280;22004;49.120;-0.200;2022-07-29T01:43:41;101355.56;;;18.57;68.44
35910;BME280;22004;49.120;-0.200;2022-07-29T01:46:13;101357.44;;;18.68;68.42
35910;BME280;22004;49.120;-0.200;2022-07-29T01:48:47;101361.84;;;18.69;68.57
35910;BME280;22004;49.120;-0.200;2022-07-29T01:51:20;101368.03;;;18.82;68.30
35910;BME280;22004;49.120;-0.200;2022-07-29T01:53:53;101373.28;;;18.84;68.40
35910;BME280;22004;49.120;-0.200;2022-07-29T01:56:23;101367.91;;;18.84;68.13
35910;BME280;22004;49.120;-0.200;2022-07-29T01:58:49;101368.25;;;18.79;68.19
35910;BME280;22004;49.120;-0.200;2022-07-29T02:01:17;101381.50;;;18.69;68.62
35910;BME280;22004;49.120;-0.200;2022-07-29T02:03:45;101374.41;;;18.68;68.64
35910;BME280;22004;49.120;-0.200;2022-07-29T02:06:12;101377.53;;;18.51;68.93
35910;BME280;22004;49.120;-0.200;2022-07-29T02:08:41;101378.78;;;18.58;68.90
35910;BME280;22004;49.120;-0.200;2022-07-29T02:11:08;101378.94;;;18.44;69.16
35910;BME280;22004;49.120;-0.200;2022-07-29T02:13:35;101381.50;;;18.45;69.02
35910;BME280;22004;49.120;-0.200;2022-07-29T02:16:06;101378.38;;;18.51;69.28
35910;BME280;22004;49.120;-0.200;2022-07-29T02:18:33;101380.75;;;18.43;68.76
35910;BME280;22004;49.120;-0.200;2022-07-29T02:20:59;101372.44;;;18.59;68.86
35910;BME280;22004;49.120;-0.200;2022-07-29T02:23:26;101369.16;;;18.67;68.71
35910;BME280;22004;49.120;-0.200;2022-07-29T02:25:53;101370.59;;;18.60;68.52
35910;BME280;22004;49.120;-0.200;2022-07-29T02:28:21;101367.88;;;18.48;68.75
35910;BME280;22004;49.120;-0.200;2022-07-29T02:30:50;101374.53;;;18.67;68.83
35910;BME280;22004;49.120;-0.200;2022-07-29T02:33:18;101382.81;;;18.40;69.03
35910;BME280;22004;49.120;-0.200;2022-07-29T02:35:46;101381.00;;;18.64;68.65
35910;BME280;22004;49.120;-0.200;2022-07-29T02:38:14;101384.19;;;18.45;68.99
35910;BME280;22004;49.120;-0.200;2022-07-29T02:41:01;101384.66;;;18.39;69.37
35910;BME280;22004;49.120;-0.200;2022-07-29T02:43:30;101380.75;;;18.43;69.40
35910;BME280;22004;49.120;-0.200;2022-07-29T02:45:56;101380.88;;;18.42;68.88
35910;BME280;22004;49.120;-0.200;2022-07-29T02:48:34;101377.72;;;18.48;69.38
35910;BME280;22004;49.120;-0.200;2022-07-29T02:51:07;101385.06;;;18.46;68.99
35910;BME280;22004;49.120;-0.200;2022-07-29T02:53:34;101380.22;;;18.51;68.82
35910;BME280;22004;49.120;-0.200;2022-07-29T02:56:07;101369.97;;;18.56;68.85
35910;BME280;22004;49.120;-0.200;2022-07-29T02:58:39;101377.81;;;18.59;68.85
35910;BME280;22004;49.120;-0.200;2022-07-29T03:01:22;101380.75;;;18.43;69.16
35910;BME280;22004;49.120;-0.200;2022-07-29T03:03:49;101374.97;;;18.37;69.19
35910;BME280;22004;49.120;-0.200;2022-07-29T03:06:17;101370.31;;;18.51;68.80
35910;BME280;22004;49.120;-0.200;2022-07-29T03:08:44;101372.41;;;18.35;69.03
35910;BME280;22004;49.120;-0.200;2022-07-29T03:11:11;101373.56;;;18.44;68.99
35910;BME280;22004;49.120;-0.200;2022-07-29T03:13:37;101384.19;;;18.45;69.24
35910;BME280;22004;49.120;-0.200;2022-07-29T03:16:04;101382.13;;;18.49;69.03
35910;BME280;22004;49.120;-0.200;2022-07-29T03:18:30;101376.63;;;18.26;69.42
35910;BME280;22004;49.120;-0.200;2022-07-29T03:20:56;101371.50;;;18.47;69.19
35910;BME280;22004;49.120;-0.200;2022-07-29T03:23:22;101381.91;;;18.52;68.84
35910;BME280;22004;49.120;-0.200;2022-07-29T03:25:52;101380.66;;;18.45;69.21
35910;BME280;22004;49.120;-0.200;2022-07-29T03:28:18;101375.94;;;18.35;69.56
35910;BME280;22004;49.120;-0.200;2022-07-29T03:30:43;101374.56;;;18.30;69.69
35910;BME280;22004;49.120;-0.200;2022-07-29T03:33:09;101370.28;;;18.27;69.72
35910;BME280;22004;49.120;-0.200;2022-07-29T03:35:34;101377.59;;;18.25;69.82
35910;BME280;22004;49.120;-0.200;2022-07-29T03:38:00;101378.41;;;18.39;69.29
35910;BME280;22004;49.120;-0.200;2022-07-29T03:40:29;101382.69;;;18.41;69.22
35910;BME280;22004;49.120;-0.200;2022-07-29T03:42:56;101373.91;;;18.39;69.43
35910;BME280;22004;49.120;-0.200;2022-07-29T03:45:22;101376.31;;;18.18;69.93
35910;BME280;22004;49.120;-0.200;2022-07-29T03:47:53;101374.91;;;18.25;70.05
35910;BME280;22004;49.120;-0.200;2022-07-29T03:50:21;101374.16;;;18.23;70.16
35910;BME280;22004;49.120;-0.200;2022-07-29T03:52:47;101370.69;;;18.34;69.57
35910;BME280;22004;49.120;-0.200;2022-07-29T03:55:14;101373.66;;;18.42;69.20
35910;BME280;22004;49.120;-0.200;2022-07-29T03:57:40;101377.63;;;18.49;69.11
35910;BME280;22004;49.120;-0.200;2022-07-29T04:00:06;101379.44;;;18.49;69.13
35910;BME280;22004;49.120;-0.200;2022-07-29T04:02:32;101384.09;;;18.47;68.99
35910;BME280;22004;49.120;-0.200;2022-07-29T04:04:58;101394.09;;;18.45;69.18
35910;BME280;22004;49.120;-0.200;2022-07-29T04:07:24;101400.41;;;18.44;68.93
35910;BME280;22004;49.120;-0.200;2022-07-29T04:09:50;101397.97;;;18.41;69.09
35910;BME280;22004;49.120;-0.200;2022-07-29T04:12:15;101393.22;;;18.44;69.21
35910;BME280;22004;49.120;-0.200;2022-07-29T04:14:40;101394.09;;;18.32;69.47
35910;BME280;22004;49.120;-0.200;2022-07-29T04:17:06;101392.19;;;18.21;69.75
35910;BME280;22004;49.120;-0.200;2022-07-29T04:19:31;101390.03;;;18.39;69.48
35910;BME280;22004;49.120;-0.200;2022-07-29T04:21:58;101380.34;;;18.37;69.50
35910;BME280;22004;49.120;-0.200;2022-07-29T04:24:23;101388.66;;;18.33;69.74
35910;BME280;22004;49.120;-0.200;2022-07-29T04:26:49;101391.94;;;18.37;69.49
35910;BME280;22004;49.120;-0.200;2022-07-29T04:29:14;101386.63;;;18.24;69.40
35910;BME280;22004;49.120;-0.200;2022-07-29T04:31:40;101389.00;;;18.16;70.00
35910;BME280;22004;49.120;-0.200;2022-07-29T04:34:06;101386.22;;;18.17;70.13
35910;BME280;22004;49.120;-0.200;2022-07-29T04:36:32;101382.94;;;18.38;69.51
35910;BME280;22004;49.120;-0.200;2022-07-29T04:38:57;101383.34;;;18.45;69.36
35910;BME280;22004;49.120;-0.200;2022-07-29T04:41:23;101382.97;;;18.25;69.90
35910;BME280;22004;49.120;-0.200;2022-07-29T04:43:48;101390.47;;;18.33;69.70
35910;BME280;22004;49.120;-0.200;2022-07-29T04:46:14;101386.41;;;18.27;70.08
35910;BME280;22004;49.120;-0.200;2022-07-29T04:48:39;101385.63;;;18.38;69.63
35910;BME280;22004;49.120;-0.200;2022-07-29T04:51:05;101388.34;;;18.25;69.89
35910;BME280;22004;49.120;-0.200;2022-07-29T04:53:30;101390.91;;;18.27;69.83
35910;BME280;22004;49.120;-0.200;2022-07-29T04:55:55;101393.25;;;18.31;69.78
35910;BME280;22004;49.120;-0.200;2022-07-29T04:58:21;101391.34;;;18.33;69.89
35910;BME280;22004;49.120;-0.200;2022-07-29T05:00:48;101394.75;;;18.35;69.72
35910;BME280;22004;49.120;-0.200;2022-07-29T05:03:14;101401.31;;;18.31;69.92
35910;BME280;22004;49.120;-0.200;2022-07-29T05:05:39;101401.25;;;18.20;69.71
35910;BME280;22004;49.120;-0.200;2022-07-29T05:08:05;101399.53;;;18.19;70.17
35910;BME280;22004;49.120;-0.200;2022-07-29T05:10:31;101405.00;;;18.17;70.16
35910;BME280;22004;49.120;-0.200;2022-07-29T05:12:57;101399.81;;;18.27;70.07
35910;BME280;22004;49.120;-0.200;2022-07-29T05:15:23;101404.00;;;18.31;69.60
35910;BME280;22004;49.120;-0.200;2022-07-29T05:17:48;101407.16;;;18.25;69.95
35910;BME280;22004;49.120;-0.200;2022-07-29T05:20:14;101407.44;;;18.33;69.68
35910;BME280;22004;49.120;-0.200;2022-07-29T05:22:39;101411.75;;;18.36;69.58
35910;BME280;22004;49.120;-0.200;2022-07-29T05:25:05;101406.25;;;18.38;69.48
35910;BME280;22004;49.120;-0.200;2022-07-29T05:27:30;101408.78;;;18.52;69.47
35910;BME280;22004;49.120;-0.200;2022-07-29T05:29:56;101412.13;;;18.43;69.58
35910;BME280;22004;49.120;-0.200;2022-07-29T05:32:21;101413.31;;;18.51;69.37
35910;BME280;22004;49.120;-0.200;2022-07-29T05:34:47;101420.28;;;18.54;69.27
35910;BME280;22004;49.120;-0.200;2022-07-29T05:37:12;101423.19;;;18.51;69.04
35910;BME280;22004;49.120;-0.200;2022-07-29T05:39:38;101422.78;;;18.44;69.61
35910;BME280;22004;49.120;-0.200;2022-07-29T05:42:08;101428.09;;;18.20;70.28
35910;BME280;22004;49.120;-0.200;2022-07-29T05:44:36;101426.56;;;18.42;69.92
35910;BME280;22004;49.120;-0.200;2022-07-29T05:47:02;101434.69;;;18.53;69.33
35910;BME280;22004;49.120;-0.200;2022-07-29T05:49:27;101439.41;;;18.49;69.36
35910;BME280;22004;49.120;-0.200;2022-07-29T05:51:52;101437.59;;;18.50;69.46
35910;BME280;22004;49.120;-0.200;2022-07-29T05:54:18;101435.56;;;18.41;69.76
35910;BME280;22004;49.120;-0.200;2022-07-29T05:56:43;101442.78;;;18.40;69.88
35910;BME280;22004;49.120;-0.200;2022-07-29T05:59:09;101441.06;;;18.39;69.86
35910;BME280;22004;49.120;-0.200;2022-07-29T06:01:34;101442.44;;;18.45;69.60
35910;BME280;22004;49.120;-0.200;2022-07-29T06:04:04;101446.50;;;18.50;69.30
35910;BME280;22004;49.120;-0.200;2022-07-29T06:06:30;101439.22;;;18.40;69.78
35910;BME280;22004;49.120;-0.200;2022-07-29T06:08:55;101443.81;;;18.50;69.49
35910;BME280;22004;49.120;-0.200;2022-07-29T06:11:20;101448.88;;;18.42;70.26
35910;BME280;22004;49.120;-0.200;2022-07-29T06:13:46;101450.78;;;18.53;69.30
35910;BME280;22004;49.120;-0.200;2022-07-29T06:16:11;101442.97;;;18.50;69.38
35910;BME280;22004;49.120;-0.200;2022-07-29T06:18:36;101454.91;;;18.46;69.71
35910;BME280;22004;49.120;-0.200;2022-07-29T06:21:07;101456.00;;;18.43;70.12
35910;BME280;22004;49.120;-0.200;2022-07-29T06:23:33;101456.41;;;18.50;69.90
35910;BME280;22004;49.120;-0.200;2022-07-29T06:25:59;101456.00;;;18.43;69.70
35910;BME280;22004;49.120;-0.200;2022-07-29T06:28:24;101461.44;;;18.55;69.44
35910;BME280;22004;49.120;-0.200;2022-07-29T06:30:51;101455.53;;;18.49;70.29
35910;BME280;22004;49.120;-0.200;2022-07-29T06:33:17;101459.38;;;18.58;69.58
35910;BME280;22004;49.120;-0.200;2022-07-29T06:35:43;101458.84;;;18.66;69.29
35910;BME280;22004;49.120;-0.200;2022-07-29T06:38:10;101462.38;;;18.66;68.99
35910;BME280;22004;49.120;-0.200;2022-07-29T06:40:36;101463.09;;;18.68;68.95
35910;BME280;22004;49.120;-0.200;2022-07-29T06:43:20;101460.66;;;18.65;69.18
35910;BME280;22004;49.120;-0.200;2022-07-29T06:45:46;101466.31;;;18.74;69.05
35910;BME280;22004;49.120;-0.200;2022-07-29T06:48:11;101467.31;;;18.73;68.72
35910;BME280;22004;49.120;-0.200;2022-07-29T06:50:37;101473.06;;;18.79;68.48
35910;BME280;22004;49.120;-0.200;2022-07-29T06:53:02;101465.88;;;18.80;68.18
35910;BME280;22004;49.120;-0.200;2022-07-29T06:55:28;101470.06;;;18.84;68.36
35910;BME280;22004;49.120;-0.200;2022-07-29T06:57:53;101466.84;;;18.92;68.05
35910;BME280;22004;49.120;-0.200;2022-07-29T07:00:18;101470.38;;;18.92;68.11
35910;BME280;22004;49.120;-0.200;2022-07-29T07:02:44;101464.31;;;19.26;67.04
35910;BME280;22004;49.120;-0.200;2022-07-29T07:05:09;101466.19;;;19.37;66.93
35910;BME280;22004;49.120;-0.200;2022-07-29T07:07:34;101472.78;;;19.79;65.65
35910;BME280;22004;49.120;-0.200;2022-07-29T07:10:00;101472.25;;;20.10;65.44
35910;BME280;22004;49.120;-0.200;2022-07-29T07:12:26;101468.81;;;20.08;64.12
35910;BME280;22004;49.120;-0.200;2022-07-29T07:14:51;101473.97;;;20.56;64.51
35910;BME280;22004;49.120;-0.200;2022-07-29T07:17:16;101483.28;;;20.18;63.88
35910;BME280;22004;49.120;-0.200;2022-07-29T07:19:42;101493.56;;;20.01;63.58
35910;BME280;22004;49.120;-0.200;2022-07-29T07:22:07;101493.00;;;19.49;65.22
35910;BME280;22004;49.120;-0.200;2022-07-29T07:24:32;101490.34;;;19.85;64.72
35910;BME280;22004;49.120;-0.200;2022-07-29T07:26:58;101482.16;;;19.98;64.56
35910;BME280;22004;49.120;-0.200;2022-07-29T07:29:23;101485.13;;;20.17;63.15
35910;BME280;22004;49.120;-0.200;2022-07-29T07:31:49;101480.47;;;20.19;62.46
35910;BME280;22004;49.120;-0.200;2022-07-29T07:34:14;101474.31;;;20.40;62.69
35910;BME280;22004;49.120;-0.200;2022-07-29T07:36:40;101483.28;;;20.41;61.96
35910;BME280;22004;49.120;-0.200;2022-07-29T07:39:05;101477.31;;;21.68;60.84
35910;BME280;22004;49.120;-0.200;2022-07-29T07:41:30;101472.16;;;22.39;56.99
35910;BME280;22004;49.120;-0.200;2022-07-29T07:43:56;101475.44;;;22.83;57.21
35910;BME280;22004;49.120;-0.200;2022-07-29T07:46:21;101466.44;;;24.37;51.80
35910;BME280;22004;49.120;-0.200;2022-07-29T07:48:46;101470.63;;;23.75;51.29
35910;BME280;22004;49.120;-0.200;2022-07-29T07:51:12;101467.91;;;23.75;52.28
35910;BME280;22004;49.120;-0.200;2022-07-29T07:53:37;101474.31;;;23.93;50.84
35910;BME280;22004;49.120;-0.200;2022-07-29T07:56:02;101465.34;;;24.86;49.96
35910;BME280;22004;49.120;-0.200;2022-07-29T07:58:29;101465.00;;;25.35;47.54
35910;BME280;22004;49.120;-0.200;2022-07-29T08:00:54;101469.16;;;25.29;45.81
35910;BME280;22004;49.120;-0.200;2022-07-29T08:03:20;101467.22;;;25.84;46.25
35910;BME280;22004;49.120;-0.200;2022-07-29T08:05:46;101473.69;;;25.38;47.01
35910;BME280;22004;49.120;-0.200;2022-07-29T08:08:12;101470.03;;;24.66;48.14
35910;BME280;22004;49.120;-0.200;2022-07-29T08:10:37;101470.59;;;24.60;47.63
35910;BME280;22004;49.120;-0.200;2022-07-29T08:13:20;101466.66;;;25.18;43.96
35910;BME280;22004;49.120;-0.200;2022-07-29T08:15:46;101466.59;;;26.16;45.99
35910;BME280;22004;49.120;-0.200;2022-07-29T08:18:12;101465.72;;;27.10;46.26
35910;BME280;22004;49.120;-0.200;2022-07-29T08:20:38;101470.13;;;26.94;41.80
35910;BME280;22004;49.120;-0.200;2022-07-29T08:23:06;101463.16;;;26.92;38.70
35910;BME280;22004;49.120;-0.200;2022-07-29T08:25:35;101466.88;;;26.91;39.41
35910;BME280;22004;49.120;-0.200;2022-07-29T08:28:00;101463.19;;;27.08;40.65
35910;BME280;22004;49.120;-0.200;2022-07-29T08:30:26;101464.53;;;26.10;39.50
35910;BME280;22004;49.120;-0.200;2022-07-29T08:32:51;101473.25;;;24.97;42.83
35910;BME280;22004;49.120;-0.200;2022-07-29T08:35:19;101468.03;;;23.73;43.34
35910;BME280;22004;49.120;-0.200;2022-07-29T08:37:45;101480.72;;;23.92;46.43
35910;BME280;22004;49.120;-0.200;2022-07-29T08:40:11;101464.16;;;25.87;40.92
35910;BME280;22004;49.120;-0.200;2022-07-29T08:42:37;101469.34;;;26.59;40.16
35910;BME280;22004;49.120;-0.200;2022-07-29T08:45:04;101467.47;;;25.99;38.39
35910;BME280;22004;49.120;-0.200;2022-07-29T08:47:30;101466.44;;;27.20;38.05
35910;BME280;22004;49.120;-0.200;2022-07-29T08:49:57;101465.75;;;26.67;39.34
35910;BME280;22004;49.120;-0.200;2022-07-29T08:52:26;101463.88;;;26.51;40.64
35910;BME280;22004;49.120;-0.200;2022-07-29T08:54:52;101469.22;;;25.74;40.39
35910;BME280;22004;49.120;-0.200;2022-07-29T08:57:19;101464.66;;;25.38;43.92
35910;BME280;22004;49.120;-0.200;2022-07-29T08:59:46;101465.97;;;25.16;41.24
35910;BME280;22004;49.120;-0.200;2022-07-29T09:02:19;101465.66;;;25.19;41.92
35910;BME280;22004;49.120;-0.200;2022-07-29T09:04:46;101462.56;;;25.50;41.87
35910;BME280;22004;49.120;-0.200;2022-07-29T09:07:15;101460.06;;;26.44;42.07
35910;BME280;22004;49.120;-0.200;2022-07-29T09:09:41;101457.06;;;27.64;39.12
35910;BME280;22004;49.120;-0.200;2022-07-29T09:12:08;101453.50;;;27.38;38.16
35910;BME280;22004;49.120;-0.200;2022-07-29T09:14:34;101462.38;;;26.65;40.75
35910;BME280;22004;49.120;-0.200;2022-07-29T09:17:00;101463.38;;;26.64;41.57
35910;BME280;22004;49.120;-0.200;2022-07-29T09:19:34;101460.66;;;27.48;42.95
35910;BME280;22004;49.120;-0.200;2022-07-29T09:22:04;101462.97;;;26.85;42.24
35910;BME280;22004;49.120;-0.200;2022-07-29T09:24:46;101463.34;;;27.31;42.70
35910;BME280;22004;49.120;-0.200;2022-07-29T09:27:24;101465.38;;;27.04;41.70
35910;BME280;22004;49.120;-0.200;2022-07-29T09:30:04;101465.72;;;27.34;41.11
35910;BME280;22004;49.120;-0.200;2022-07-29T09:32:31;101463.88;;;27.76;41.78
35910;BME280;22004;49.120;-0.200;2022-07-29T09:35:16;101464.50;;;27.95;40.67
35910;BME280;22004;49.120;-0.200;2022-07-29T09:37:43;101468.78;;;27.89;39.54
35910;BME280;22004;49.120;-0.200;2022-07-29T09:40:17;101457.34;;;28.02;41.21
35910;BME280;22004;49.120;-0.200;2022-07-29T09:42:44;101459.63;;;27.16;42.55
35910;BME280;22004;49.120;-0.200;2022-07-29T09:45:10;101455.38;;;27.46;42.86
35910;BME280;22004;49.120;-0.200;2022-07-29T09:47:47;101456.84;;;26.91;43.03
35910;BME280;22004;49.120;-0.200;2022-07-29T09:50:15;101454.38;;;27.47;43.36
35910;BME280;22004;49.120;-0.200;2022-07-29T09:52:51;101460.41;;;26.41;44.27
35910;BME280;22004;49.120;-0.200;2022-07-29T09:55:17;101448.38;;;27.35;42.39
35910;BME280;22004;49.120;-0.200;2022-07-29T09:57:44;101452.81;;;27.28;42.19
35910;BME280;22004;49.120;-0.200;2022-07-29T10:00:12;101455.53;;;27.12;42.71
35910;BME280;22004;49.120;-0.200;2022-07-29T10:02:39;101452.81;;;27.28;41.53
35910;BME280;22004;49.120;-0.200;2022-07-29T10:05:16;101447.50;;;27.84;40.48
35910;BME280;22004;49.120;-0.200;2022-07-29T10:07:50;101444.44;;;27.79;41.24
35910;BME280;22004;49.120;-0.200;2022-07-29T10:10:45;101444.91;;;27.91;39.71
35910;BME280;22004;49.120;-0.200;2022-07-29T10:13:14;101446.69;;;27.43;41.10
35910;BME280;22004;49.120;-0.200;2022-07-29T10:15:43;101443.41;;;28.05;40.57
35910;BME280;22004;49.120;-0.200;2022-07-29T10:18:13;101442.59;;;28.28;40.86
35910;BME280;22004;49.120;-0.200;2022-07-29T10:20:40;101436.38;;;28.11;39.71
35910;BME280;22004;49.120;-0.200;2022-07-29T10:23:05;101439.84;;;27.80;40.43
35910;BME280;22004;49.120;-0.200;2022-07-29T10:25:31;101447.53;;;27.68;41.03
35910;BME280;22004;49.120;-0.200;2022-07-29T10:27:57;101441.00;;;28.02;41.23
35910;BME280;22004;49.120;-0.200;2022-07-29T10:30:24;101442.16;;;28.08;40.60
35910;BME280;22004;49.120;-0.200;2022-07-29T10:38:15;101446.50;;;28.42;39.11
35910;BME280;22004;49.120;-0.200;2022-07-29T10:41:05;101445.16;;;28.29;38.97
35910;BME280;22004;49.120;-0.200;2022-07-29T10:44:06;101450.19;;;27.93;38.00
35910;BME280;22004;49.120;-0.200;2022-07-29T10:46:36;101442.25;;;28.70;37.68
35910;BME280;22004;49.120;-0.200;2022-07-29T10:49:15;101440.38;;;28.71;38.76
35910;BME280;22004;49.120;-0.200;2022-07-29T10:54:17;101446.81;;;28.38;36.16
35910;BME280;22004;49.120;-0.200;2022-07-29T10:56:42;101443.22;;;28.06;36.04
35910;BME280;22004;49.120;-0.200;2022-07-29T11:01:49;101443.66;;;28.58;36.75
35910;BME280;22004;49.120;-0.200;2022-07-29T11:07:11;101440.44;;;28.54;36.62
35910;BME280;22004;49.120;-0.200;2022-07-29T11:09:37;101441.44;;;28.22;38.52
35910;BME280;22004;49.120;-0.200;2022-07-29T11:12:03;101443.16;;;28.23;38.91
35910;BME280;22004;49.120;-0.200;2022-07-29T11:15:00;101451.47;;;28.69;35.59
35910;BME280;22004;49.120;-0.200;2022-07-29T11:17:27;101447.34;;;28.73;36.44
35910;BME280;22004;49.120;-0.200;2022-07-29T11:22:56;101447.06;;;28.20;34.94
35910;BME280;22004;49.120;-0.200;2022-07-29T11:25:22;101445.06;;;28.54;35.29
35910;BME280;22004;49.120;-0.200;2022-07-29T11:27:47;101432.50;;;28.76;34.40
35910;BME280;22004;49.120;-0.200;2022-07-29T11:30:13;101444.03;;;29.10;35.10
35910;BME280;22004;49.120;-0.200;2022-07-29T11:32:43;101438.84;;;29.00;35.40
35910;BME280;22004;49.120;-0.200;2022-07-29T11:35:22;101444.25;;;28.77;34.85
35910;BME280;22004;49.120;-0.200;2022-07-29T11:41:19;101443.03;;;28.48;35.26
35910;BME280;22004;49.120;-0.200;2022-07-29T11:43:52;101451.38;;;28.86;34.19
35910;BME280;22004;49.120;-0.200;2022-07-29T11:46:47;101441.25;;;29.18;36.04
35910;BME280;22004;49.120;-0.200;2022-07-29T11:49:19;101449.75;;;28.68;34.03
35910;BME280;22004;49.120;-0.200;2022-07-29T11:51:54;101449.41;;;28.32;36.71
35910;BME280;22004;49.120;-0.200;2022-07-29T11:54:33;101446.44;;;28.50;34.11
35910;BME280;22004;49.120;-0.200;2022-07-29T11:57:00;101450.41;;;27.17;36.91
35910;BME280;22004;49.120;-0.200;2022-07-29T11:59:26;101453.81;;;27.02;38.50
35910;BME280;22004;49.120;-0.200;2022-07-29T12:01:57;101451.88;;;28.10;37.21
35910;BME280;22004;49.120;-0.200;2022-07-29T12:04:22;101445.59;;;27.93;37.94
35910;BME280;22004;49.120;-0.200;2022-07-29T12:06:57;101458.84;;;28.13;38.05
35910;BME280;22004;49.120;-0.200;2022-07-29T12:09:23;101455.72;;;27.51;39.61
35910;BME280;22004;49.120;-0.200;2022-07-29T12:11:58;101457.75;;;28.38;37.54
35910;BME280;22004;49.120;-0.200;2022-07-29T12:14:28;101457.91;;;27.64;39.54
35910;BME280;22004;49.120;-0.200;2022-07-29T12:16:54;101453.72;;;28.18;38.31
35910;BME280;22004;49.120;-0.200;2022-07-29T12:19:19;101453.28;;;27.89;36.75
35910;BME280;22004;49.120;-0.200;2022-07-29T12:21:45;101457.53;;;28.00;36.42
35910;BME280;22004;49.120;-0.200;2022-07-29T12:24:11;101453.84;;;27.52;39.32
35910;BME280;22004;49.120;-0.200;2022-07-29T12:26:49;101458.78;;;27.65;37.56
35910;BME280;22004;49.120;-0.200;2022-07-29T12:29:16;101456.91;;;27.41;39.13
35910;BME280;22004;49.120;-0.200;2022-07-29T12:31:42;101448.91;;;27.47;37.09
35910;BME280;22004;49.120;-0.200;2022-07-29T12:34:09;101459.97;;;27.54;38.77
35910;BME280;22004;49.120;-0.200;2022-07-29T12:36:34;101450.78;;;27.63;39.06
35910;BME280;22004;49.120;-0.200;2022-07-29T12:39:00;101460.66;;;27.72;36.89
35910;BME280;22004;49.120;-0.200;2022-07-29T12:41:28;101463.69;;;27.12;38.17
35910;BME280;22004;49.120;-0.200;2022-07-29T12:43:54;101467.16;;;27.55;36.48
35910;BME280;22004;49.120;-0.200;2022-07-29T12:46:20;101463.69;;;27.78;35.91
35910;BME280;22004;49.120;-0.200;2022-07-29T12:48:50;101464.09;;;27.42;38.03
35910;BME280;22004;49.120;-0.200;2022-07-29T12:51:34;101465.72;;;27.26;38.43
35910;BME280;22004;49.120;-0.200;2022-07-29T12:54:08;101474.28;;;27.81;39.05
35910;BME280;22004;49.120;-0.200;2022-07-29T12:56:36;101482.44;;;27.23;38.47
35910;BME280;22004;49.120;-0.200;2022-07-29T12:59:11;101475.97;;;27.73;38.15
35910;BME280;22004;49.120;-0.200;2022-07-29T13:01:37;101471.50;;;28.05;39.30
35910;BME280;22004;49.120;-0.200;2022-07-29T13:04:03;101481.28;;;27.42;38.59
35910;BME280;22004;49.120;-0.200;2022-07-29T13:06:30;101485.75;;;26.49;40.57
35910;BME280;22004;49.120;-0.200;2022-07-29T13:09:03;101486.94;;;26.81;38.94
35910;BME280;22004;49.120;-0.200;2022-07-29T13:11:38;101483.84;;;26.33;40.55
35910;BME280;22004;49.120;-0.200;2022-07-29T13:14:07;101487.75;;;26.73;39.97